sensor_id;sensor_type;location;lat;lon;timestamp;P1;durP1;ratioP1;P2;durP2;ratioP2
17644;SDS011;8941;51.986;4.340;2022-08-19T00:01:37;9.73;;;9.13;;
17644;SDS011;8941;51.986;4.340;2022-08-19T00:04:05;8.53;;;7.77;;
17644;SDS011;8941;51.986;4.340;2022-08-19T00:06:31;9.80;;;8.90;;
17644;SDS011;8941;51.986;4.340;2022-08-19T00:09:00;11.83;;;10.10;;
17644;SDS011;8941;51.986;4.340;2022-08-19T00:11:27;10.90;;;10.00;;
17644;SDS011;8941;51.986;4.340;2022-08-19T00:13:54;8.63;;;8.13;;
17644;SDS011;8941;51.986;4.340;2022-08-19T00:19:20;10.20;;;9.13;;
17644;SDS011;8941;51.986;4.340;2022-08-19T00:21:47;10.30;;;9.50;;
17644;SDS011;8941;51.986;4.340;2022-08-19T00:24:14;10.03;;;9.07;;
17644;SDS011;8941;51.986;4.340;2022-08-19T00:26:41;9.03;;;8.17;;
17644;SDS011;8941;51.986;4.340;2022-08-19T00:29:08;9.23;;;8.47;;
17644;SDS011;8941;51.986;4.340;2022-08-19T00:31:35;9.93;;;8.80;;
17644;SDS011;8941;51.986;4.340;2022-08-19T00:34:01;9.03;;;8.33;;
17644;SDS011;8941;51.986;4.340;2022-08-19T00:36:29;10.70;;;8.63;;
17644;SDS011;8941;51.986;4.340;2022-08-19T00:38:56;10.13;;;9.33;;
17644;SDS011;8941;51.986;4.340;2022-08-19T00:41:23;9.47;;;8.57;;
17644;SDS011;8941;51.986;4.340;2022-08-19T00:43:57;10.60;;;9.70;;
17644;SDS011;8941;51.986;4.340;2022-08-19T00:46:23;10.07;;;9.13;;
17644;SDS011;8941;51.986;4.340;2022-08-19T00:48:50;10.63;;;9.03;;
17644;SDS011;8941;51.986;4.340;2022-08-19T00:51:16;8.37;;;7.67;;
17644;SDS011;8941;51.986;4.340;2022-08-19T00:53:44;10.10;;;9.23;;
17644;SDS011;8941;51.986;4.340;2022-08-19T00:56:10;11.47;;;10.33;;
17644;SDS011;8941;51.986;4.340;2022-08-19T00:58:37;9.97;;;9.20;;
17644;SDS011;8941;51.986;4.340;2022-08-19T01:01:05;10.10;;;9.30;;
17644;SDS011;8941;51.986;4.340;2022-08-19T01:03:32;10.33;;;9.40;;
17644;SDS011;8941;51.986;4.340;2022-08-19T01:05:59;12.13;;;9.87;;
17644;SDS011;8941;51.986;4.340;2022-08-19T01:08:26;12.07;;;9.13;;
17644;SDS011;8941;51.986;4.340;2022-08-19T01:10:54;11.63;;;10.53;;
17644;SDS011;8941;51.986;4.340;2022-08-19T01:13:22;11.27;;;10.37;;
17644;SDS011;8941;51.986;4.340;2022-08-19T01:15:50;12.97;;;10.10;;
17644;SDS011;8941;51.986;4.340;2022-08-19T01:18:18;11.17;;;9.67;;
17644;SDS011;8941;51.986;4.340;2022-08-19T01:20:45;10.67;;;9.63;;
17644;SDS011;8941;51.986;4.340;2022-08-19T01:23:13;12.23;;;10.97;;
17644;SDS011;8941;51.986;4.340;2022-08-19T01:25:41;11.00;;;10.10;;
17644;SDS011;8941;51.986;4.340;2022-08-19T01:28:13;12.47;;;11.37;;
17644;SDS011;8941;51.986;4.340;2022-08-19T01:30:40;12.43;;;11.33;;
17644;SDS011;8941;51.986;4.340;2022-08-19T01:33:06;12.47;;;11.17;;
17644;SDS011;8941;51.986;4.340;2022-08-19T01:35:32;13.83;;;12.70;;
17644;SDS011;8941;51.986;4.340;2022-08-19T01:38:02;11.57;;;10.67;;
17644;SDS011;8941;51.986;4.340;2022-08-19T01:40:35;11.40;;;10.60;;
17644;SDS011;8941;51.986;4.340;2022-08-19T01:43:01;12.23;;;11.40;;
17644;SDS011;8941;51.986;4.340;2022-08-19T01:45:29;12.00;;;11.20;;
17644;SDS011;8941;51.986;4.340;2022-08-19T01:47:56;18.03;;;16.40;;
17644;SDS011;8941;51.986;4.340;2022-08-19T01:50:23;22.13;;;20.27;;
17644;SDS011;8941;51.986;4.340;2022-08-19T01:52:49;21.57;;;19.60;;
17644;SDS011;8941;51.986;4.340;2022-08-19T01:55:18;22.57;;;19.97;;
17644;SDS011;8941;51.986;4.340;2022-08-19T01:57:47;25.03;;;22.53;;
17644;SDS011;8941;51.986;4.340;2022-08-19T02:00:15;26.00;;;23.37;;
17644;SDS011;8941;51.986;4.340;2022-08-19T02:02:42;24.83;;;22.40;;
17644;SDS011;8941;51.986;4.340;2022-08-19T02:05:09;24.97;;;22.93;;
17644;SDS011;8941;51.986;4.340;2022-08-19T02:07:35;25.53;;;23.17;;
17644;SDS011;8941;51.986;4.340;2022-08-19T02:10:02;25.60;;;23.33;;
17644;SDS011;8941;51.986;4.340;2022-08-19T02:12:30;24.43;;;22.13;;
17644;SDS011;8941;51.986;4.340;2022-08-19T02:14:58;23.93;;;21.80;;
17644;SDS011;8941;51.986;4.340;2022-08-19T02:17:26;26.03;;;23.50;;
17644;SDS011;8941;51.986;4.340;2022-08-19T02:19:53;26.93;;;24.43;;
17644;SDS011;8941;51.986;4.340;2022-08-19T02:22:20;27.43;;;25.07;;
17644;SDS011;8941;51.986;4.340;2022-08-19T02:24:46;30.23;;;27.53;;
17644;SDS011;8941;51.986;4.340;2022-08-19T02:27:13;29.83;;;27.10;;
17644;SDS011;8941;51.986;4.340;2022-08-19T02:29:40;28.33;;;25.60;;
17644;SDS011;8941;51.986;4.340;2022-08-19T02:32:08;29.73;;;27.10;;
17644;SDS011;8941;51.986;4.340;2022-08-19T02:34:35;27.80;;;25.07;;
17644;SDS011;8941;51.986;4.340;2022-08-19T02:37:01;28.37;;;25.73;;
17644;SDS011;8941;51.986;4.340;2022-08-19T02:39:27;28.40;;;25.43;;
17644;SDS011;8941;51.986;4.340;2022-08-19T02:41:53;28.30;;;25.57;;
17644;SDS011;8941;51.986;4.340;2022-08-19T02:44:19;30.30;;;26.87;;
17644;SDS011;8941;51.986;4.340;2022-08-19T02:46:47;30.50;;;27.67;;
17644;SDS011;8941;51.986;4.340;2022-08-19T02:49:16;28.17;;;25.47;;
17644;SDS011;8941;51.986;4.340;2022-08-19T02:51:44;26.33;;;23.83;;
17644;SDS011;8941;51.986;4.340;2022-08-19T02:54:11;26.47;;;24.07;;
17644;SDS011;8941;51.986;4.340;2022-08-19T02:56:39;27.17;;;24.50;;
17644;SDS011;8941;51.986;4.340;2022-08-19T02:59:06;26.83;;;24.40;;
17644;SDS011;8941;51.986;4.340;2022-08-19T03:01:33;27.77;;;25.23;;
17644;SDS011;8941;51.986;4.340;2022-08-19T03:04:00;27.50;;;24.57;;
17644;SDS011;8941;51.986;4.340;2022-08-19T03:06:28;27.53;;;24.87;;
17644;SDS011;8941;51.986;4.340;2022-08-19T03:08:55;27.40;;;24.70;;
17644;SDS011;8941;51.986;4.340;2022-08-19T03:11:23;28.63;;;25.87;;
17644;SDS011;8941;51.986;4.340;2022-08-19T03:13:49;27.00;;;24.37;;
17644;SDS011;8941;51.986;4.340;2022-08-19T03:16:16;28.67;;;25.77;;
17644;SDS011;8941;51.986;4.340;2022-08-19T03:18:42;26.43;;;23.60;;
17644;SDS011;8941;51.986;4.340;2022-08-19T03:21:09;24.70;;;22.37;;
17644;SDS011;8941;51.986;4.340;2022-08-19T03:23:37;28.90;;;25.90;;
17644;SDS011;8941;51.986;4.340;2022-08-19T03:26:04;27.53;;;24.93;;
17644;SDS011;8941;51.986;4.340;2022-08-19T03:28:31;36.23;;;28.43;;
17644;SDS011;8941;51.986;4.340;2022-08-19T03:30:58;31.87;;;28.67;;
17644;SDS011;8941;51.986;4.340;2022-08-19T03:33:25;31.53;;;26.97;;
17644;SDS011;8941;51.986;4.340;2022-08-19T03:35:59;31.93;;;28.57;;
17644;SDS011;8941;51.986;4.340;2022-08-19T03:38:26;31.40;;;28.13;;
17644;SDS011;8941;51.986;4.340;2022-08-19T03:40:53;36.23;;;31.13;;
17644;SDS011;8941;51.986;4.340;2022-08-19T03:43:20;34.93;;;31.57;;
17644;SDS011;8941;51.986;4.340;2022-08-19T03:45:46;36.23;;;32.77;;
17644;SDS011;8941;51.986;4.340;2022-08-19T03:48:13;35.57;;;31.80;;
17644;SDS011;8941;51.986;4.340;2022-08-19T03:50:41;38.63;;;34.63;;
17644;SDS011;8941;51.986;4.340;2022-08-19T03:53:08;42.23;;;38.13;;
17644;SDS011;8941;51.986;4.340;2022-08-19T03:55:39;44.13;;;38.30;;
17644;SDS011;8941;51.986;4.340;2022-08-19T03:58:07;44.50;;;39.90;;
17644;SDS011;8941;51.986;4.340;2022-08-19T04:00:33;44.73;;;40.10;;
17644;SDS011;8941;51.986;4.340;2022-08-19T04:03:00;46.50;;;40.47;;
17644;SDS011;8941;51.986;4.340;2022-08-19T04:05:27;43.63;;;39.13;;
17644;SDS011;8941;51.986;4.340;2022-08-19T04:07:54;48.73;;;42.37;;
17644;SDS011;8941;51.986;4.340;2022-08-19T04:13:27;46.10;;;41.20;;
17644;SDS011;8941;51.986;4.340;2022-08-19T04:15:54;44.97;;;40.23;;
17644;SDS011;8941;51.986;4.340;2022-08-19T04:18:20;43.57;;;38.87;;
17644;SDS011;8941;51.986;4.340;2022-08-19T04:20:47;43.57;;;38.63;;
17644;SDS011;8941;51.986;4.340;2022-08-19T04:23:14;42.77;;;38.33;;
17644;SDS011;8941;51.986;4.340;2022-08-19T04:25:41;40.13;;;36.10;;
17644;SDS011;8941;51.986;4.340;2022-08-19T04:28:09;44.73;;;37.80;;
17644;SDS011;8941;51.986;4.340;2022-08-19T04:30:41;42.33;;;38.10;;
17644;SDS011;8941;51.986;4.340;2022-08-19T04:33:08;41.23;;;36.23;;
17644;SDS011;8941;51.986;4.340;2022-08-19T04:35:35;40.73;;;36.37;;
17644;SDS011;8941;51.986;4.340;2022-08-19T04:38:02;39.57;;;35.70;;
17644;SDS011;8941;51.986;4.340;2022-08-19T04:40:29;38.20;;;34.37;;
17644;SDS011;8941;51.986;4.340;2022-08-19T04:43:13;37.73;;;33.70;;
17644;SDS011;8941;51.986;4.340;2022-08-19T04:45:41;38.97;;;34.03;;
17644;SDS011;8941;51.986;4.340;2022-08-19T04:48:08;41.30;;;35.40;;
17644;SDS011;8941;51.986;4.340;2022-08-19T04:50:34;42.50;;;32.80;;
17644;SDS011;8941;51.986;4.340;2022-08-19T04:53:01;35.40;;;31.77;;
17644;SDS011;8941;51.986;4.340;2022-08-19T04:55:28;35.80;;;31.53;;
17644;SDS011;8941;51.986;4.340;2022-08-19T04:57:54;33.37;;;29.80;;
17644;SDS011;8941;51.986;4.340;2022-08-19T05:00:21;35.73;;;29.77;;
17644;SDS011;8941;51.986;4.340;2022-08-19T05:02:49;35.43;;;31.70;;
17644;SDS011;8941;51.986;4.340;2022-08-19T05:05:15;38.10;;;31.13;;
17644;SDS011;8941;51.986;4.340;2022-08-19T05:07:41;38.47;;;31.57;;
17644;SDS011;8941;51.986;4.340;2022-08-19T05:10:08;36.17;;;31.97;;
17644;SDS011;8941;51.986;4.340;2022-08-19T05:12:34;33.00;;;29.73;;
17644;SDS011;8941;51.986;4.340;2022-08-19T05:15:02;31.20;;;28.03;;
17644;SDS011;8941;51.986;4.340;2022-08-19T05:17:29;31.70;;;28.47;;
17644;SDS011;8941;51.986;4.340;2022-08-19T05:19:57;33.90;;;27.83;;
17644;SDS011;8941;51.986;4.340;2022-08-19T05:22:38;38.43;;;29.97;;
17644;SDS011;8941;51.986;4.340;2022-08-19T05:25:05;42.53;;;28.57;;
17644;SDS011;8941;51.986;4.340;2022-08-19T05:27:32;41.87;;;29.20;;
17644;SDS011;8941;51.986;4.340;2022-08-19T05:30:13;33.87;;;27.80;;
17644;SDS011;8941;51.986;4.340;2022-08-19T05:32:41;30.70;;;27.53;;
17644;SDS011;8941;51.986;4.340;2022-08-19T05:35:09;32.57;;;28.93;;
17644;SDS011;8941;51.986;4.340;2022-08-19T05:37:36;32.47;;;29.13;;
17644;SDS011;8941;51.986;4.340;2022-08-19T05:40:05;29.87;;;26.80;;
17644;SDS011;8941;51.986;4.340;2022-08-19T05:42:32;32.57;;;26.67;;
17644;SDS011;8941;51.986;4.340;2022-08-19T05:44:58;31.27;;;27.70;;
17644;SDS011;8941;51.986;4.340;2022-08-19T05:47:24;32.47;;;27.53;;
17644;SDS011;8941;51.986;4.340;2022-08-19T05:49:51;29.87;;;26.63;;
17644;SDS011;8941;51.986;4.340;2022-08-19T05:52:29;29.70;;;26.90;;
17644;SDS011;8941;51.986;4.340;2022-08-19T05:54:56;30.13;;;27.17;;
17644;SDS011;8941;51.986;4.340;2022-08-19T05:57:23;30.03;;;26.53;;
17644;SDS011;8941;51.986;4.340;2022-08-19T05:59:49;31.87;;;27.07;;
17644;SDS011;8941;51.986;4.340;2022-08-19T06:02:16;31.67;;;27.37;;
17644;SDS011;8941;51.986;4.340;2022-08-19T06:04:42;30.23;;;26.90;;
17644;SDS011;8941;51.986;4.340;2022-08-19T06:07:09;30.80;;;27.83;;
17644;SDS011;8941;51.986;4.340;2022-08-19T06:09:37;32.47;;;25.97;;
17644;SDS011;8941;51.986;4.340;2022-08-19T06:12:03;30.60;;;24.67;;
17644;SDS011;8941;51.986;4.340;2022-08-19T06:14:31;27.40;;;24.60;;
17644;SDS011;8941;51.986;4.340;2022-08-19T06:16:58;29.23;;;25.97;;
17644;SDS011;8941;51.986;4.340;2022-08-19T06:19:26;28.20;;;22.80;;
17644;SDS011;8941;51.986;4.340;2022-08-19T06:21:55;33.90;;;23.73;;
17644;SDS011;8941;51.986;4.340;2022-08-19T06:24:23;25.30;;;22.43;;
17644;SDS011;8941;51.986;4.340;2022-08-19T06:26:52;25.50;;;22.57;;
17644;SDS011;8941;51.986;4.340;2022-08-19T06:29:20;25.13;;;22.43;;
17644;SDS011;8941;51.986;4.340;2022-08-19T06:31:48;29.57;;;23.07;;
17644;SDS011;8941;51.986;4.340;2022-08-19T06:34:15;27.90;;;22.27;;
17644;SDS011;8941;51.986;4.340;2022-08-19T06:36:42;26.70;;;23.40;;
17644;SDS011;8941;51.986;4.340;2022-08-19T06:39:09;23.77;;;20.90;;
17644;SDS011;8941;51.986;4.340;2022-08-19T06:41:36;23.40;;;21.17;;
17644;SDS011;8941;51.986;4.340;2022-08-19T06:44:05;31.87;;;21.67;;
17644;SDS011;8941;51.986;4.340;2022-08-19T06:46:31;24.17;;;22.07;;
17644;SDS011;8941;51.986;4.340;2022-08-19T06:48:58;24.93;;;22.07;;
17644;SDS011;8941;51.986;4.340;2022-08-19T06:51:24;24.93;;;21.93;;
17644;SDS011;8941;51.986;4.340;2022-08-19T06:53:52;24.70;;;21.17;;
17644;SDS011;8941;51.986;4.340;2022-08-19T06:56:21;23.70;;;20.97;;
17644;SDS011;8941;51.986;4.340;2022-08-19T06:58:49;26.07;;;19.77;;
17644;SDS011;8941;51.986;4.340;2022-08-19T07:01:19;22.43;;;19.23;;
17644;SDS011;8941;51.986;4.340;2022-08-19T07:03:45;24.17;;;20.97;;
17644;SDS011;8941;51.986;4.340;2022-08-19T07:06:14;24.63;;;20.37;;
17644;SDS011;8941;51.986;4.340;2022-08-19T07:08:42;23.17;;;18.73;;
17644;SDS011;8941;51.986;4.340;2022-08-19T07:11:10;18.53;;;16.57;;
17644;SDS011;8941;51.986;4.340;2022-08-19T07:13:37;28.73;;;19.13;;
17644;SDS011;8941;51.986;4.340;2022-08-19T07:16:04;19.20;;;17.20;;
17644;SDS011;8941;51.986;4.340;2022-08-19T07:18:32;20.87;;;18.63;;
17644;SDS011;8941;51.986;4.340;2022-08-19T07:21:03;19.37;;;16.87;;
17644;SDS011;8941;51.986;4.340;2022-08-19T07:23:32;20.40;;;15.90;;
17644;SDS011;8941;51.986;4.340;2022-08-19T07:25:59;20.23;;;15.50;;
17644;SDS011;8941;51.986;4.340;2022-08-19T07:28:30;17.73;;;15.87;;
17644;SDS011;8941;51.986;4.340;2022-08-19T07:30:56;18.27;;;16.37;;
17644;SDS011;8941;51.986;4.340;2022-08-19T07:33:22;19.50;;;15.23;;
17644;SDS011;8941;51.986;4.340;2022-08-19T07:35:50;16.00;;;14.67;;
17644;SDS011;8941;51.986;4.340;2022-08-19T07:38:16;20.33;;;15.97;;
17644;SDS011;8941;51.986;4.340;2022-08-19T07:40:43;22.47;;;14.73;;
17644;SDS011;8941;51.986;4.340;2022-08-19T07:43:11;17.40;;;15.50;;
17644;SDS011;8941;51.986;4.340;2022-08-19T07:45:37;16.30;;;14.40;;
17644;SDS011;8941;51.986;4.340;2022-08-19T07:48:04;16.23;;;13.13;;
17644;SDS011;8941;51.986;4.340;2022-08-19T07:50:30;18.17;;;13.90;;
17644;SDS011;8941;51.986;4.340;2022-08-19T07:52:58;12.30;;;11.20;;
17644;SDS011;8941;51.986;4.340;2022-08-19T07:55:26;13.97;;;11.67;;
17644;SDS011;8941;51.986;4.340;2022-08-19T07:57:52;14.33;;;11.33;;
17644;SDS011;8941;51.986;4.340;2022-08-19T08:00:19;12.37;;;10.80;;
17644;SDS011;8941;51.986;4.340;2022-08-19T08:02:46;13.23;;;10.80;;
17644;SDS011;8941;51.986;4.340;2022-08-19T08:05:14;13.13;;;9.63;;
17644;SDS011;8941;51.986;4.340;2022-08-19T08:08:00;11.50;;;9.37;;
17644;SDS011;8941;51.986;4.340;2022-08-19T08:10:49;13.53;;;9.03;;
17644;SDS011;8941;51.986;4.340;2022-08-19T08:13:16;15.00;;;8.30;;
17644;SDS011;8941;51.986;4.340;2022-08-19T08:15:42;8.07;;;6.83;;
17644;SDS011;8941;51.986;4.340;2022-08-19T08:18:10;7.87;;;6.33;;
17644;SDS011;8941;51.986;4.340;2022-08-19T08:20:36;10.00;;;8.47;;
17644;SDS011;8941;51.986;4.340;2022-08-19T08:23:04;9.30;;;7.20;;
17644;SDS011;8941;51.986;4.340;2022-08-19T08:25:49;8.27;;;6.53;;
17644;SDS011;8941;51.986;4.340;2022-08-19T08:28:16;9.03;;;6.60;;
17644;SDS011;8941;51.986;4.340;2022-08-19T08:30:43;11.03;;;7.70;;
17644;SDS011;8941;51.986;4.340;2022-08-19T08:33:12;7.07;;;6.53;;
17644;SDS011;8941;51.986;4.340;2022-08-19T08:35:39;10.73;;;7.43;;
17644;SDS011;8941;51.986;4.340;2022-08-19T08:38:14;7.00;;;6.40;;
17644;SDS011;8941;51.986;4.340;2022-08-19T08:40:43;7.03;;;5.63;;
17644;SDS011;8941;51.986;4.340;2022-08-19T08:43:13;10.20;;;6.03;;
17644;SDS011;8941;51.986;4.340;2022-08-19T08:45:44;8.05;;;5.72;;
17644;SDS011;8941;51.986;4.340;2022-08-19T08:48:15;6.22;;;5.10;;
17644;SDS011;8941;51.986;4.340;2022-08-19T08:50:42;9.02;;;6.70;;
17644;SDS011;8941;51.986;4.340;2022-08-19T08:53:10;9.30;;;6.70;;
17644;SDS011;8941;51.986;4.340;2022-08-19T08:55:41;9.35;;;5.72;;
17644;SDS011;8941;51.986;4.340;2022-08-19T08:58:09;6.82;;;5.55;;
17644;SDS011;8941;51.986;4.340;2022-08-19T09:00:40;7.03;;;5.03;;
17644;SDS011;8941;51.986;4.340;2022-08-19T09:03:09;5.22;;;4.70;;
17644;SDS011;8941;51.986;4.340;2022-08-19T09:05:40;7.30;;;4.43;;
17644;SDS011;8941;51.986;4.340;2022-08-19T09:08:11;8.18;;;4.30;;
17644;SDS011;8941;51.986;4.340;2022-08-19T09:10:44;4.75;;;4.25;;
17644;SDS011;8941;51.986;4.340;2022-08-19T09:13:15;4.95;;;3.90;;
17644;SDS011;8941;51.986;4.340;2022-08-19T09:15:46;7.00;;;4.22;;
17644;SDS011;8941;51.986;4.340;2022-08-19T09:18:14;4.68;;;4.03;;
17644;SDS011;8941;51.986;4.340;2022-08-19T09:20:41;4.13;;;3.83;;
17644;SDS011;8941;51.986;4.340;2022-08-19T09:23:07;7.32;;;4.35;;
17644;SDS011;8941;51.986;4.340;2022-08-19T09:25:36;5.97;;;3.90;;
17644;SDS011;8941;51.986;4.340;2022-08-19T09:28:03;7.97;;;4.32;;
17644;SDS011;8941;51.986;4.340;2022-08-19T09:30:31;5.77;;;4.10;;
17644;SDS011;8941;51.986;4.340;2022-08-19T09:32:57;5.05;;;4.07;;
17644;SDS011;8941;51.986;4.340;2022-08-19T09:35:25;3.90;;;3.50;;
17644;SDS011;8941;51.986;4.340;2022-08-19T09:37:52;5.77;;;3.80;;
17644;SDS011;8941;51.986;4.340;2022-08-19T09:40:19;4.07;;;3.77;;
17644;SDS011;8941;51.986;4.340;2022-08-19T09:42:46;3.33;;;3.07;;
17644;SDS011;8941;51.986;4.340;2022-08-19T09:45:14;4.67;;;3.23;;
17644;SDS011;8941;51.986;4.340;2022-08-19T09:47:41;4.03;;;3.60;;
17644;SDS011;8941;51.986;4.340;2022-08-19T09:50:09;4.67;;;3.27;;
17644;SDS011;8941;51.986;4.340;2022-08-19T09:52:38;6.40;;;3.17;;
17644;SDS011;8941;51.986;4.340;2022-08-19T09:55:05;6.50;;;3.08;;
17644;SDS011;8941;51.986;4.340;2022-08-19T09:57:31;5.05;;;3.72;;
17644;SDS011;8941;51.986;4.340;2022-08-19T09:59:58;2.33;;;2.17;;
17644;SDS011;8941;51.986;4.340;2022-08-19T10:02:25;4.72;;;2.10;;
17644;SDS011;8941;51.986;4.340;2022-08-19T10:04:52;5.18;;;2.00;;
17644;SDS011;8941;51.986;4.340;2022-08-19T10:07:36;4.30;;;2.30;;
17644;SDS011;8941;51.986;4.340;2022-08-19T10:10:02;2.67;;;2.47;;
17644;SDS011;8941;51.986;4.340;2022-08-19T10:12:31;3.17;;;2.65;;
17644;SDS011;8941;51.986;4.340;2022-08-19T10:14:58;2.53;;;2.33;;
17644;SDS011;8941;51.986;4.340;2022-08-19T10:17:26;3.65;;;2.30;;
17644;SDS011;8941;51.986;4.340;2022-08-19T10:19:52;2.83;;;2.63;;
17644;SDS011;8941;51.986;4.340;2022-08-19T10:22:18;3.65;;;2.58;;
17644;SDS011;8941;51.986;4.340;2022-08-19T10:24:45;3.38;;;2.40;;
17644;SDS011;8941;51.986;4.340;2022-08-19T10:27:12;2.60;;;2.10;;
17644;SDS011;8941;51.986;4.340;2022-08-19T10:29:39;3.90;;;2.30;;
17644;SDS011;8941;51.986;4.340;2022-08-19T10:32:06;2.33;;;2.22;;
17644;SDS011;8941;51.986;4.340;2022-08-19T10:34:38;2.15;;;1.40;;
17644;SDS011;8941;51.986;4.340;2022-08-19T10:37:05;3.10;;;2.28;;
17644;SDS011;8941;51.986;4.340;2022-08-19T10:39:35;2.53;;;2.35;;
17644;SDS011;8941;51.986;4.340;2022-08-19T10:42:11;2.70;;;2.50;;
17644;SDS011;8941;51.986;4.340;2022-08-19T10:44:38;2.42;;;1.98;;
17644;SDS011;8941;51.986;4.340;2022-08-19T10:47:04;4.30;;;1.63;;
17644;SDS011;8941;51.986;4.340;2022-08-19T10:49:31;3.60;;;2.63;;
17644;SDS011;8941;51.986;4.340;2022-08-19T10:52:19;2.88;;;2.13;;
17644;SDS011;8941;51.986;4.340;2022-08-19T10:54:59;4.65;;;1.85;;
17644;SDS011;8941;51.986;4.340;2022-08-19T10:57:43;2.03;;;1.90;;
17644;SDS011;8941;51.986;4.340;2022-08-19T11:00:10;6.47;;;2.28;;
17644;SDS011;8941;51.986;4.340;2022-08-19T11:02:36;2.50;;;2.30;;
17644;SDS011;8941;51.986;4.340;2022-08-19T11:05:04;3.33;;;1.95;;
17644;SDS011;8941;51.986;4.340;2022-08-19T11:07:33;1.90;;;1.80;;
17644;SDS011;8941;51.986;4.340;2022-08-19T11:10:01;2.53;;;1.97;;
17644;SDS011;8941;51.986;4.340;2022-08-19T11:12:31;3.37;;;1.97;;
17644;SDS011;8941;51.986;4.340;2022-08-19T11:14:58;2.53;;;2.30;;
17644;SDS011;8941;51.986;4.340;2022-08-19T11:17:27;2.73;;;2.40;;
17644;SDS011;8941;51.986;4.340;2022-08-19T11:19:56;2.27;;;1.87;;
17644;SDS011;8941;51.986;4.340;2022-08-19T11:22:24;1.90;;;1.80;;
17644;SDS011;8941;51.986;4.340;2022-08-19T11:24:51;3.90;;;2.17;;
17644;SDS011;8941;51.986;4.340;2022-08-19T11:27:18;2.23;;;1.93;;
17644;SDS011;8941;51.986;4.340;2022-08-19T11:32:31;2.55;;;1.77;;
17644;SDS011;8941;51.986;4.340;2022-08-19T11:34:58;2.58;;;1.70;;
17644;SDS011;8941;51.986;4.340;2022-08-19T11:37:25;2.45;;;2.25;;
17644;SDS011;8941;51.986;4.340;2022-08-19T11:39:53;2.00;;;1.90;;
17644;SDS011;8941;51.986;4.340;2022-08-19T11:42:19;2.03;;;1.73;;
17644;SDS011;8941;51.986;4.340;2022-08-19T11:45:03;2.38;;;2.17;;
17644;SDS011;8941;51.986;4.340;2022-08-19T11:47:30;3.40;;;2.35;;
17644;SDS011;8941;51.986;4.340;2022-08-19T11:49:56;5.07;;;2.13;;
17644;SDS011;8941;51.986;4.340;2022-08-19T11:52:23;2.60;;;1.88;;
17644;SDS011;8941;51.986;4.340;2022-08-19T11:54:49;2.25;;;2.05;;
17644;SDS011;8941;51.986;4.340;2022-08-19T11:57:19;4.07;;;2.28;;
17644;SDS011;8941;51.986;4.340;2022-08-19T11:59:49;2.35;;;2.22;;
17644;SDS011;8941;51.986;4.340;2022-08-19T12:02:15;2.28;;;1.80;;
17644;SDS011;8941;51.986;4.340;2022-08-19T12:04:42;4.20;;;2.58;;
17644;SDS011;8941;51.986;4.340;2022-08-19T12:07:08;3.05;;;2.70;;
17644;SDS011;8941;51.986;4.340;2022-08-19T12:09:35;3.28;;;2.50;;
17644;SDS011;8941;51.986;4.340;2022-08-19T12:12:04;4.60;;;2.75;;
17644;SDS011;8941;51.986;4.340;2022-08-19T12:14:32;3.17;;;2.88;;
17644;SDS011;8941;51.986;4.340;2022-08-19T12:16:58;2.17;;;2.08;;
17644;SDS011;8941;51.986;4.340;2022-08-19T12:19:25;2.65;;;2.08;;
17644;SDS011;8941;51.986;4.340;2022-08-19T12:21:51;1.25;;;1.25;;
17644;SDS011;8941;51.986;4.340;2022-08-19T12:24:20;2.70;;;1.55;;
17644;SDS011;8941;51.986;4.340;2022-08-19T12:26:48;3.15;;;1.52;;
17644;SDS011;8941;51.986;4.340;2022-08-19T12:29:15;1.98;;;1.50;;
17644;SDS011;8941;51.986;4.340;2022-08-19T12:31:43;2.05;;;1.90;;
17644;SDS011;8941;51.986;4.340;2022-08-19T12:34:09;2.95;;;1.80;;
17644;SDS011;8941;51.986;4.340;2022-08-19T12:36:35;2.28;;;1.88;;
17644;SDS011;8941;51.986;4.340;2022-08-19T12:39:02;3.00;;;1.92;;
17644;SDS011;8941;51.986;4.340;2022-08-19T12:41:30;2.15;;;1.85;;
17644;SDS011;8941;51.986;4.340;2022-08-19T12:43:57;1.80;;;1.70;;
17644;SDS011;8941;51.986;4.340;2022-08-19T12:46:23;3.38;;;2.03;;
17644;SDS011;8941;51.986;4.340;2022-08-19T12:48:51;2.55;;;2.33;;
17644;SDS011;8941;51.986;4.340;2022-08-19T12:51:19;2.60;;;1.92;;
17644;SDS011;8941;51.986;4.340;2022-08-19T12:53:47;2.17;;;2.05;;
17644;SDS011;8941;51.986;4.340;2022-08-19T12:56:15;1.60;;;1.35;;
17644;SDS011;8941;51.986;4.340;2022-08-19T12:58:42;1.55;;;1.00;;
17644;SDS011;8941;51.986;4.340;2022-08-19T13:01:09;3.67;;;1.63;;
17644;SDS011;8941;51.986;4.340;2022-08-19T13:03:36;1.17;;;1.08;;
17644;SDS011;8941;51.986;4.340;2022-08-19T13:06:04;1.15;;;1.00;;
17644;SDS011;8941;51.986;4.340;2022-08-19T13:08:31;1.63;;;1.45;;
17644;SDS011;8941;51.986;4.340;2022-08-19T13:10:57;4.03;;;1.65;;
17644;SDS011;8941;51.986;4.340;2022-08-19T13:13:24;2.88;;;1.90;;
17644;SDS011;8941;51.986;4.340;2022-08-19T13:15:51;1.85;;;1.35;;
17644;SDS011;8941;51.986;4.340;2022-08-19T13:18:19;0.80;;;0.80;;
17644;SDS011;8941;51.986;4.340;2022-08-19T13:20:45;1.60;;;1.00;;
17644;SDS011;8941;51.986;4.340;2022-08-19T13:23:13;1.05;;;1.05;;
17644;SDS011;8941;51.986;4.340;2022-08-19T13:25:39;1.05;;;0.75;;
17644;SDS011;8941;51.986;4.340;2022-08-19T13:28:09;1.02;;;1.02;;
17644;SDS011;8941;51.986;4.340;2022-08-19T13:30:38;0.77;;;0.77;;
17644;SDS011;8941;51.986;4.340;2022-08-19T13:33:22;3.35;;;1.25;;
17644;SDS011;8941;51.986;4.340;2022-08-19T13:35:51;1.70;;;1.10;;
17644;SDS011;8941;51.986;4.340;2022-08-19T13:38:23;2.90;;;1.30;;
17644;SDS011;8941;51.986;4.340;2022-08-19T13:40:51;3.33;;;1.33;;
17644;SDS011;8941;51.986;4.340;2022-08-19T13:43:18;1.42;;;1.20;;
17644;SDS011;8941;51.986;4.340;2022-08-19T13:45:47;1.52;;;1.20;;
17644;SDS011;8941;51.986;4.340;2022-08-19T13:48:13;1.20;;;1.10;;
17644;SDS011;8941;51.986;4.340;2022-08-19T13:50:41;1.08;;;1.08;;
17644;SDS011;8941;51.986;4.340;2022-08-19T13:53:08;0.95;;;0.95;;
17644;SDS011;8941;51.986;4.340;2022-08-19T13:55:39;1.30;;;1.30;;
17644;SDS011;8941;51.986;4.340;2022-08-19T13:58:06;1.75;;;1.65;;
17644;SDS011;8941;51.986;4.340;2022-08-19T14:00:34;1.25;;;1.15;;
17644;SDS011;8941;51.986;4.340;2022-08-19T14:03:01;2.58;;;1.05;;
17644;SDS011;8941;51.986;4.340;2022-08-19T14:05:28;1.20;;;1.10;;
17644;SDS011;8941;51.986;4.340;2022-08-19T14:07:55;1.60;;;1.50;;
17644;SDS011;8941;51.986;4.340;2022-08-19T14:10:22;1.20;;;0.95;;
17644;SDS011;8941;51.986;4.340;2022-08-19T14:12:51;1.67;;;1.38;;
17644;SDS011;8941;51.986;4.340;2022-08-19T14:15:18;1.58;;;1.48;;
17644;SDS011;8941;51.986;4.340;2022-08-19T14:17:44;1.75;;;1.08;;
17644;SDS011;8941;51.986;4.340;2022-08-19T14:20:13;1.15;;;1.15;;
17644;SDS011;8941;51.986;4.340;2022-08-19T14:22:40;1.95;;;1.52;;
17644;SDS011;8941;51.986;4.340;2022-08-19T14:25:07;1.35;;;1.25;;
17644;SDS011;8941;51.986;4.340;2022-08-19T14:27:34;1.30;;;1.20;;
17644;SDS011;8941;51.986;4.340;2022-08-19T14:30:03;1.95;;;1.75;;
17644;SDS011;8941;51.986;4.340;2022-08-19T14:32:29;1.58;;;1.48;;
17644;SDS011;8941;51.986;4.340;2022-08-19T14:34:56;2.05;;;1.77;;
17644;SDS011;8941;51.986;4.340;2022-08-19T14:37:22;6.65;;;2.67;;
17644;SDS011;8941;51.986;4.340;2022-08-19T14:39:49;2.70;;;2.50;;
17644;SDS011;8941;51.986;4.340;2022-08-19T14:42:15;3.97;;;2.28;;
17644;SDS011;8941;51.986;4.340;2022-08-19T14:47:47;2.97;;;2.30;;
17644;SDS011;8941;51.986;4.340;2022-08-19T14:50:13;2.65;;;1.90;;
17644;SDS011;8941;51.986;4.340;2022-08-19T14:52:40;2.72;;;2.53;;
17644;SDS011;8941;51.986;4.340;2022-08-19T14:55:06;2.45;;;2.25;;
17644;SDS011;8941;51.986;4.340;2022-08-19T14:57:33;3.28;;;2.45;;
17644;SDS011;8941;51.986;4.340;2022-08-19T14:59:59;3.28;;;3.05;;
17644;SDS011;8941;51.986;4.340;2022-08-19T15:02:26;2.30;;;2.20;;
17644;SDS011;8941;51.986;4.340;2022-08-19T15:04:53;3.90;;;2.13;;